Arvada, Wyoming
Current Conditions -  °F | °C
As of 12:53 AM on Friday 19 Dec 2014 (Local Time) from KBYG Reporting Station
Clear Clear  
Wind Chill: 23°   Ceiling: Unl
Heat Index: 30°   Visibility: 10mi
Dew Point: 11°   Wind: 7mph
Humidity: 45%   Direction: 270°W
Pressure: 29.98"   Gusts: NA
Location:  44.65°N, 106.13°W
Report Text: KBYG 190753Z AUTO 27006KT 10SM CLR M01/M12 A2998 RMK AO2 SLP163 T10111117
Loading
Personal Weather Stations






























Interactive Weather Map New forecast layout! Learn more

10-Day Weather Forecast

Advertisements
Track Severe Weather on mobile